This is the latest recevied weather packets stored in our database for station/object UR7D-12. If no packets are shown the sender has not sent any weather packets the latest 10 day(s).
| Time | Temp. | Humidity | Pressure | Rain* | Wind** | Luminosity | Snow |
|---|---|---|---|---|---|---|---|
| 1778237276 | 16.67° C | 85% | 990.1 hPa | 0 mm | - | - | - |
| 1778236976 | 16.67° C | 83% | 990 hPa | 0 mm | - | - | - |
| 1778236377 | 16.67° C | 81% | 990.1 hPa | 0 mm | - | - | - |
| 1778236075 | 16.67° C | 80% | 990.2 hPa | 0 mm | - | - | - |
| 1778235776 | 17.22° C | 80% | 990.3 hPa | 0 mm | - | - | - |
| 1778235174 | 17.22° C | 79% | 990.3 hPa | 0 mm | - | - | - |
| 1778234874 | 17.22° C | 77% | 990.3 hPa | 0 mm | - | - | - |
| 1778234574 | 17.22° C | 76% | 990.4 hPa | 0 mm | - | - | - |
| 1778234275 | 17.78° C | 74% | 990.3 hPa | 0 mm | - | - | - |
| 1778233975 | 17.78° C | 74% | 990.4 hPa | 0 mm | - | - | - |
| 1778233673 | 17.78° C | 75% | 990.4 hPa | 0 mm | - | - | - |
| 1778233373 | 17.78° C | 75% | 990.3 hPa | 0 mm | - | - | - |
| 1778233072 | 17.78° C | 75% | 990.5 hPa | 0 mm | - | - | - |
| 1778232772 | 17.22° C | 76% | 990.5 hPa | 0 mm | - | - | - |
| 1778232472 | 17.22° C | 77% | 990.5 hPa | 0 mm | - | - | - |
| 1778232171 | 17.78° C | 75% | 990.4 hPa | 0 mm | - | - | - |
| 1778231871 | 17.22° C | 77% | 990.4 hPa | 0 mm | - | - | - |
| 1778231572 | 17.22° C | 76% | 990.6 hPa | 0 mm | - | - | - |
| 1778230670 | 16.67° C | 82% | 990.5 hPa | 0 mm | - | - | - |
| 1778230371 | 16.11° C | 83% | 990.5 hPa | 0 mm | - | - | - |
| 1778230069 | 16.11° C | 83% | 990.5 hPa | 0 mm | - | - | - |
| 1778229769 | 16.67° C | 83% | 990.5 hPa | 0 mm | - | - | - |
| 1778229469 | 16.11° C | 86% | 990.5 hPa | 0 mm | - | - | - |
| 1778229169 | 16.11° C | 91% | 990.4 hPa | 0 mm | - | - | - |
| 1778228868 | 15.56° C | 96% | 990.6 hPa | 0 mm | - | - | - |
* Rain latest hour (hover to see other rain measurements)
** Current wind speed in m/s (hover to see current wind gust speed)